Latest Weather Observations for Giles*

IDW60801

Issued at 7:03 pm WST Tuesday 30 August 2016 (issued every 30 minutes, with the page automatically refreshed every 10 minutes)

About weather observations | Map of weather stations | Latest weather observations for WA | Other Formats
Station Details ID: 013017 Name: GILES METEOROLOGICAL OFFICE Lat: -25.03 Lon: 128.30 Height: 598.0 m
Data from the previous 72 hours. | See also: Recent months at Giles*

* Giles observations are collected in the South Australia time zone, which includes daylight saving in the summer period. Therefore, Rain since 9am value is with respect to South Australia local time.

Date/Time
WST
Temp
°C
App
Temp
°C
Dew
Point
°C
Rel
Hum
%
Delta-T
°C
Wind Press
QNH
hPa
Press
MSL
hPa
Rain since
9am
mm
Dir  Spd
km/h
Gust
km/h
Spd
kts
Gust
kts
30/07:00pm 16.4 13.8 4.4 45 5.8 N 7 9 4 5 1019.3 1018.0 0.0
30/06:30pm 17.2 14.4 3.4 39 6.6 WNW 7 9 4 5 1018.8 1017.5 0.0
30/06:00pm 17.3 15.1 5.4 45 5.9 W 6 9 3 5 1018.4 1017.1 0.0
30/05:30pm 18.7 16.2 3.9 37 7.2 W 6 7 3 4 1018.1 1016.8 0.0
30/05:00pm 20.3 17.5 2.0 29 8.7 W 6 11 3 6 1017.8 1016.5 0.0
30/04:30pm 20.7 17.5 0.7 26 9.3 WNW 7 9 4 5 1017.5 1016.1 0.0
30/04:00pm 20.6 17.5 1.2 27 9.1 NW 7 17 4 9 1017.0 1015.7 0.0
30/03:30pm 21.3 17.2 -0.3 23 9.9 SW 11 20 6 11 1017.0 1015.7 0.0
30/03:00pm 20.9 17.2 0.0 24 9.6 WSW 9 19 5 10 1017.0 1015.7 0.0
30/02:30pm 20.9 16.7 -0.7 23 9.8 WSW 11 17 6 9 1016.9 1015.6 0.0
30/02:00pm 21.1 16.6 -0.3 24 9.8 WNW 13 24 7 13 1017.1 1015.8 0.0
30/01:30pm 21.0 17.0 0.6 25 9.5 WSW 11 19 6 10 1017.3 1015.9 0.0
30/01:00pm 20.0 16.3 0.1 26 9.1 S 9 17 5 9 1017.5 1016.1 0.0
30/12:30pm 20.3 16.9 1.7 29 8.8 NW 9 15 5 8 1017.8 1016.5 0.0
30/12:00pm 19.8 16.9 2.7 32 8.2 NW 7 15 4 8 1018.1 1016.8 0.0
30/11:30am 19.7 16.5 2.9 33 8.1 NNW 9 15 5 8 1018.4 1017.1 0.0
30/11:00am 19.1 16.4 3.7 36 7.5 WSW 7 19 4 10 1018.9 1017.6 0.0
30/10:30am 18.1 15.1 3.9 39 6.9 SE 9 19 5 10 1019.1 1017.8 0.0
30/10:00am 17.4 14.9 4.5 42 6.3 E 7 15 4 8 1019.5 1018.2 0.0
30/09:30am 17.5 14.5 6.2 47 5.7 SE 11 17 6 9 1019.7 1018.4 0.0
30/09:00am 16.3 12.8 5.3 48 5.4 SE 13 17 7 9 1019.7 1018.4 0.0
30/08:30am 15.4 12.5 6.7 56 4.4 SE 11 17 6 9 1019.7 1018.4 0.0
30/08:00am 14.5 11.3 6.9 60 3.8 SE 13 19 7 10 1019.5 1018.2 0.0
30/07:30am 13.2 10.7 8.1 71 2.6 SE 11 15 6 8 1019.3 1018.0 0.4
30/07:00am 11.8 10.0 9.3 85 1.3 SE 9 13 5 7 1019.1 1017.8 0.4
30/06:30am 10.3 8.8 9.1 92 0.6 E 7 9 4 5 1018.6 1017.3 0.4
30/06:00am 7.9 6.2 7.7 99 0.1 SE 6 7 3 4 1018.2 1016.9 0.4
30/05:30am 8.1 6.5 8.1 100 0.0 ENE 6 7 3 4 1017.7 1016.4 0.4
30/05:00am 8.5 8.2 8.5 100 0.0 CALM 0 0 0 0 1017.4 1016.0 0.4
30/04:30am 9.3 9.2 9.3 100 0.0 CALM 0 0 0 0 1016.9 1015.6 0.4
30/04:00am 9.6 8.8 9.6 100 0.0 SW 4 7 2 4 1016.7 1015.4 0.4
30/03:30am 9.9 7.5 9.9 100 0.0 SW 13 17 7 9 1016.5 1015.2 0.4
30/03:00am 11.0 9.2 11.0 100 0.0 WSW 11 17 6 9 1016.1 1014.7 0.4
30/02:30am 11.4 9.8 11.4 100 0.0 W 11 15 6 8 1015.9 1014.5 0.4
30/02:00am 11.5 10.3 11.5 100 0.0 W 9 11 5 6 1015.8 1014.4 0.4
30/01:30am 11.7 10.5 11.7 100 0.0 WNW 9 11 5 6 1015.4 1014.1 0.4
30/01:00am 12.3 10.9 12.3 100 0.0 NW 11 17 6 9 1015.3 1014.0 0.4
30/12:30am 12.4 11.0 12.2 99 0.1 NW 11 15 6 8 1015.3 1014.0 0.4
30/12:00am 12.3 10.2 12.3 100 0.0 NNW 15 19 8 10 1015.3 1014.0 0.4
 
Date/Time
WST
Temp
°C
App
Temp
°C
Dew
Point
°C
Rel
Hum
%
Delta-T
°C
Wind Press
QNH
hPa
Press
MSL
hPa
Rain since
9am
mm
Dir  Spd
km/h
Gust
km/h
Spd
kts
Gust
kts
29/11:30pm 12.6 9.7 12.4 99 0.1 N 19 24 10 13 1015.2 1013.9 0.4
29/11:00pm 12.5 9.4 12.1 97 0.2 N 20 28 11 15 1015.1 1013.8 0.4
29/10:30pm 12.4 9.8 11.9 97 0.3 NNW 17 20 9 11 1015.1 1013.8 0.4
29/10:00pm 12.4 10.5 11.7 95 0.4 NNW 13 19 7 10 1015.0 1013.7 0.4
29/09:30pm 12.6 10.1 11.1 91 0.8 NNW 15 17 8 9 1015.0 1013.7 0.4
29/09:00pm 12.4 10.3 11.3 93 0.6 NNW 13 15 7 8 1015.0 1013.7 0.4
29/08:30pm 13.4 10.2 11.4 88 1.1 NNW 19 22 10 12 1014.9 1013.6 0.4
29/08:00pm 13.5 11.1 11.5 88 1.1 NNW 15 19 8 10 1014.9 1013.6 0.4
29/07:30pm 13.5 10.8 10.5 82 1.6 N 15 19 8 10 1014.6 1013.2 0.4
29/07:00pm 13.9 10.7 10.0 77 2.1 N 17 20 9 11 1014.1 1012.7 0.4
29/06:30pm 13.9 10.8 10.2 78 2.0 N 17 22 9 12 1013.8 1012.4 0.4
29/06:00pm 14.1 11.4 10.2 77 2.1 N 15 19 8 10 1013.5 1012.2 0.4
29/05:30pm 14.7 12.7 10.0 73 2.5 N 11 15 6 8 1013.2 1011.9 0.4
29/05:00pm 16.1 12.8 9.6 65 3.5 N 17 20 9 11 1013.0 1011.6 0.4
29/04:30pm 17.3 14.6 7.5 52 5.1 NNW 11 15 6 8 1012.7 1011.3 0.4
29/04:00pm 17.3 14.5 7.0 50 5.3 NW 11 17 6 9 1012.2 1010.8 0.4
29/03:30pm 17.2 14.9 7.6 53 5.0 NNW 9 17 5 9 1012.0 1010.6 0.4
29/03:00pm 17.1 14.1 7.7 54 4.9 NNW 13 17 7 9 1011.7 1010.4 0.4
29/02:30pm 17.1 14.4 7.2 52 5.1 NNW 11 15 6 8 1011.7 1010.4 0.2
29/02:00pm 15.9 12.9 7.6 58 4.3 NNW 13 17 7 9 1012.2 1010.8 0.2
29/01:30pm 16.0 13.5 6.7 54 4.7 N 9 15 5 8 1012.1 1010.7 0.2
29/01:00pm 15.4 13.1 7.4 59 4.1 N 9 13 5 7 1012.3 1010.9 0.2
29/12:30pm 15.3 12.7 6.1 54 4.6 NNE 9 13 5 7 1012.6 1011.2 0.2
29/12:00pm 14.3 11.3 6.2 58 4.0 ENE 11 15 6 8 1013.0 1011.6 0.2
29/11:30am 13.6 11.5 8.2 70 2.8 ENE 9 13 5 7 1013.2 1011.9 0.2
29/11:00am 13.8 11.0 6.8 62 3.5 E 11 15 6 8 1013.0 1011.6 0.2
29/10:30am 14.0 11.4 6.1 59 3.9 E 9 13 5 7 1013.8 1012.4 0.2
29/10:00am 13.6 11.3 7.5 66 3.1 ENE 9 13 5 7 1014.2 1012.8 0.2
29/09:30am 12.8 11.1 10.0 83 1.5 ENE 9 13 5 7 1014.6 1013.2 0.2
29/09:00am 12.5 10.7 10.8 89 0.9 ENE 11 13 6 7 1014.2 1012.8 0.2
29/08:42am 12.1 10.1 10.2 88 1.0 E 11 17 6 9 1014.0 1012.6 0.0
29/08:30am 12.2 9.7 9.7 85 1.3 E 13 19 7 10 1014.1 1012.7 0.0
29/08:00am 11.7 7.9 9.2 85 1.3 ESE 19 24 10 13 1013.5 1012.2 0.0
29/07:30am 11.3 8.8 9.6 89 0.9 E 13 17 7 9 1014.2 1012.8 5.6
29/07:00am 10.8 8.2 9.4 91 0.7 E 13 17 7 9 1013.6 1012.3 5.6
29/06:30am 10.7 8.5 9.5 92 0.6 E 11 15 6 8 1013.5 1012.2 5.6
29/06:00am 10.3 7.4 9.5 95 0.4 SE 15 17 8 9 1013.2 1011.9 5.6
29/05:30am 10.3 8.1 9.3 93 0.5 SE 11 17 6 9 1013.4 1012.1 5.6
29/05:00am 10.2 6.5 9.4 95 0.4 S 19 26 10 14 1012.9 1011.5 5.2
29/04:30am 10.7 7.1 9.9 95 0.4 S 19 28 10 15 1012.6 1011.2 4.6
29/04:00am 13.4 13.6 13.0 97 0.2 SSW 4 13 2 7 1011.6 1010.2 3.0
29/03:30am 13.3 13.0 12.8 97 0.3 W 6 9 3 5 1011.5 1010.1 3.0
29/03:00am 13.5 13.2 12.8 95 0.4 WSW 6 9 3 5 1011.4 1010.0 2.6
29/02:30am 13.9 13.4 12.8 93 0.6 WNW 7 11 4 6 1011.4 1010.0 1.2
29/02:00am 14.4 12.7 12.3 87 1.2 WNW 13 17 7 9 1012.3 1010.9 0.4
29/01:30am 14.6 11.8 11.5 82 1.7 WSW 17 28 9 15 1011.6 1010.2 0.4
29/01:00am 15.2 11.9 12.7 85 1.4 W 22 43 12 23 1012.4 1011.0 0.4
29/12:30am 17.8 16.4 12.2 70 3.2 W 11 15 6 8 1011.5 1010.1 0.0
29/12:00am 17.7 15.9 12.1 69 3.2 WNW 13 20 7 11 1012.0 1010.6 0.0
 
Date/Time
WST
Temp
°C
App
Temp
°C
Dew
Point
°C
Rel
Hum
%
Delta-T
°C
Wind Press
QNH
hPa
Press
MSL
hPa
Rain since
9am
mm
Dir  Spd
km/h
Gust
km/h
Spd
kts
Gust
kts
28/11:30pm 16.8 15.7 12.0 73 2.7 NNW 9 9 5 5 1011.7 1010.4 0.0
28/11:00pm 17.7 16.6 12.1 69 3.2 WNW 9 11 5 6 1012.1 1010.7 0.0
28/10:30pm 17.8 16.3 12.0 69 3.3 NW 11 15 6 8 1012.3 1010.9 0.0
28/10:00pm 18.1 17.4 12.1 68 3.4 WNW 7 9 4 5 1012.3 1010.9 0.0
28/09:30pm 18.9 17.8 11.9 64 4.0 W 9 11 5 6 1012.3 1010.9 0.0
28/09:00pm 20.3 17.4 9.8 51 5.8 WNW 15 22 8 12 1012.4 1011.0 0.0
28/08:30pm 20.6 17.2 9.1 47 6.3 NNW 17 22 9 12 1012.2 1010.8 0.0
28/08:00pm 20.3 17.2 8.9 48 6.2 NNW 15 20 8 11 1011.8 1010.5 0.0
28/07:30pm 19.9 17.2 8.8 48 6.0 NW 13 17 7 9 1011.6 1010.2 0.0
28/07:00pm 20.7 17.3 9.0 47 6.4 NNW 17 24 9 13 1011.3 1009.9 0.0
28/06:30pm 21.3 17.5 9.1 45 6.7 NNW 19 26 10 14 1011.1 1009.7 0.0
28/06:00pm 21.9 17.6 9.2 44 7.0 NNW 22 30 12 16 1010.6 1009.2 0.0
28/05:30pm 22.7 17.9 8.9 41 7.6 NNW 24 35 13 19 1010.3 1008.8 0.0
28/05:00pm 23.2 16.2 8.6 39 8.0 NNW 35 48 19 26 1010.0 1008.6 0.0
28/04:41pm 23.8 17.8 8.8 38 8.3 NNW 30 48 16 26 1010.0 1008.6 0.0
28/04:30pm 23.8 17.5 8.8 38 8.3 NNW 32 46 17 25 1009.9 1008.5 0.0
28/04:10pm 24.6 18.7 9.0 37 8.7 NW 30 48 16 26 1009.8 1008.4 0.0
28/04:00pm 24.4 18.0 8.7 36 8.7 NW 32 44 17 24 1009.7 1008.3 0.0
28/03:30pm 23.6 18.3 8.5 38 8.3 NNW 26 35 14 19 1009.7 1008.3 0.0
28/03:00pm 23.4 17.8 8.7 39 8.1 NNW 28 43 15 23 1009.9 1008.5 0.0
28/02:30pm 23.4 16.9 8.2 37 8.3 NNW 32 44 17 24 1009.9 1008.5 0.0
28/02:10pm 23.6 17.5 8.2 37 8.4 NW 30 48 16 26 1010.0 1008.6 0.0
28/02:00pm 23.4 16.9 8.2 37 8.3 NW 32 46 17 25 1010.2 1008.7 0.0
28/01:52pm 23.4 17.7 8.2 37 8.3 NW 28 46 15 25 1010.2 1008.7 0.0
28/01:30pm 23.0 16.8 7.9 38 8.2 NW 30 46 16 25 1010.4 1009.0 0.0
28/01:00pm 22.8 15.6 7.6 37 8.2 NW 35 57 19 31 1010.6 1009.2 0.0
28/12:35pm 23.0 16.4 7.6 37 8.3 NW 32 50 17 27 1010.9 1009.5 0.0
28/12:30pm 23.2 16.3 7.4 36 8.5 NW 33 46 18 25 1010.9 1009.5 0.0
28/12:00pm 23.4 16.1 7.2 35 8.7 NNW 35 54 19 29 1011.1 1009.7 0.0
28/11:30am 23.8 17.2 7.8 36 8.7 NNW 32 50 17 27 1011.4 1010.0 0.0
28/11:10am 23.8 17.0 7.5 35 8.8 NNW 33 52 18 28 1011.8 1010.5 0.0
28/11:00am 23.2 16.5 7.4 36 8.5 NNW 32 44 17 24 1012.1 1010.7 0.0
28/10:30am 23.5 17.5 7.0 34 8.8 NNW 28 46 15 25 1012.5 1011.1 0.0
28/10:00am 24.1 17.5 6.1 31 9.5 N 30 41 16 22 1012.5 1011.1 0.0
28/09:30am 21.6 14.9 5.7 35 8.2 N 30 39 16 21 1012.8 1011.4 0.0
28/09:00am 19.8 13.6 7.7 45 6.4 N 30 41 16 22 1013.6 1012.3 0.0
28/08:30am 21.2 14.5 3.9 32 8.6 N 28 41 15 22 1013.5 1012.2 0.0
28/08:00am 20.6 14.5 2.6 30 8.7 N 24 35 13 19 1013.9 1012.5 0.0
28/07:30am 20.5 13.3 0.7 26 9.2 N 28 35 15 19 1013.9 1012.5 0.2
28/07:00am 19.9 13.9 -1.2 24 9.4 N 20 28 11 15 1013.4 1012.1 0.2
28/06:30am 19.4 13.6 -1.8 24 9.3 N 19 28 10 15 1013.4 1012.1 0.2
28/06:00am 19.4 12.9 -2.6 22 9.5 N 22 30 12 16 1013.1 1011.7 0.2
28/05:30am 19.1 12.1 -3.3 21 9.5 N 24 33 13 18 1012.9 1011.5 0.2
28/05:00am 19.6 13.0 -3.5 20 9.8 N 22 37 12 20 1012.7 1011.3 0.2
28/04:30am 19.7 13.7 -2.8 21 9.7 N 19 24 10 13 1012.4 1011.0 0.2
28/04:00am 20.2 13.9 -3.8 19 10.2 N 20 28 11 15 1012.2 1010.8 0.2
28/03:30am 20.2 13.5 -3.8 19 10.2 N 22 33 12 18 1012.2 1010.8 0.2
28/03:00am 20.0 13.7 -3.9 19 10.1 N 20 32 11 17 1012.1 1010.7 0.2
28/02:30am 20.0 12.9 -4.3 19 10.2 N 24 33 13 18 1012.2 1010.8 0.2
28/02:00am 20.2 13.1 -4.3 19 10.3 N 24 33 13 18 1012.5 1011.1 0.2
28/01:30am 20.1 13.0 -4.6 18 10.3 N 24 35 13 19 1012.4 1011.0 0.2
28/01:00am 20.3 12.0 -5.0 18 10.5 N 30 41 16 22 1012.6 1011.2 0.2
28/12:30am 20.7 12.4 -5.0 17 10.7 N 30 43 16 23 1012.6 1011.2 0.2
28/12:00am 21.7 12.4 -5.4 16 11.3 N 35 52 19 28 1012.7 1011.3 0.2
 
Date/Time
WST
Temp
°C
App
Temp
°C
Dew
Point
°C
Rel
Hum
%
Delta-T
°C
Wind Press
QNH
hPa
Press
MSL
hPa
Rain since
9am
mm
Dir  Spd
km/h
Gust
km/h
Spd
kts
Gust
kts
27/11:34pm 22.2 12.8 -6.1 14 11.7 NNE 35 54 19 29 1012.7 1011.3 0.2
27/11:30pm 22.1 13.1 -5.9 15 11.6 NNE 33 48 18 26 1012.7 1011.3 0.2
27/11:00pm 21.9 12.2 -5.9 15 11.5 N 37 54 20 29 1012.9 1011.5 0.2
27/10:34pm 22.4 12.2 -6.6 14 11.9 N 39 57 21 31 1013.0 1011.6 0.2
27/10:30pm 22.4 12.3 -6.1 14 11.8 N 39 54 21 29 1013.0 1011.6 0.2
27/10:07pm 22.4 13.4 -6.1 14 11.8 NNE 33 52 18 28 1013.5 1012.2 0.2
27/10:00pm 22.4 13.1 -5.6 15 11.7 NNE 35 48 19 26 1013.5 1012.2 0.2
27/09:30pm 22.4 13.7 -5.6 15 11.7 NNE 32 44 17 24 1014.0 1012.6 0.2
27/09:16pm 22.7 13.7 -6.3 14 12.0 NNE 33 52 18 28 1014.1 1012.7 0.2
27/09:00pm 22.2 14.2 -5.6 15 11.6 NNE 28 43 15 23 1014.3 1012.9 0.2
27/08:46pm 22.6 14.6 -6.1 14 11.9 NNE 28 46 15 25 1014.4 1013.0 0.2
27/08:30pm 22.3 14.3 -5.4 15 11.6 NNE 28 37 15 20 1014.6 1013.2 0.2
27/08:00pm 22.7 15.1 -5.3 15 11.8 NNE 26 41 14 22 1014.7 1013.4 0.2
27/07:30pm 22.5 15.7 -4.8 16 11.6 NNE 22 30 12 16 1014.8 1013.5 0.2
27/07:00pm 22.2 15.9 -4.1 17 11.3 NNE 20 28 11 15 1014.8 1013.5 0.2
27/06:30pm 21.7 16.4 -3.5 18 10.9 NNE 15 20 8 11 1014.6 1013.2 0.2
27/06:00pm 22.0 16.2 -4.6 16 11.3 N 17 20 9 11 1014.4 1013.0 0.2

Other Formats:

Comma delimited format used in spreadsheet applications
http://www.bom.gov.au/fwo/IDW60801/IDW60801.94461.axf

JavaScript Object Notation format (JSON) in row-major order
http://www.bom.gov.au/fwo/IDW60801/IDW60801.94461.json